Data for 12/07/2008

Time Sea-Level Adjusted Pressure Absolute Pressure Temperature Relative Humidity Dew Point   
(mb) (inHg) (mb) (inHg) (C) (F) (%) (C) (F)
00:05 1016 30 845 24.95 5.2 41.4 46 -5.5 22.1
00:10 1016 30 845 24.95 5.3 41.5 46 -5.5 22.1
00:15 1016 30 845 24.95 5.2 41.4 47 -5 22.9
00:20 1016 30 845 24.95 4.7 40.5 50 -4.7 23.6
00:25 1016 30 845 24.95 4.2 39.6 52 -4.8 23.4
00:30 1016 30 845 24.95 3.8 38.9 53 -4.8 23.4
00:35 1016 30 845 24.95 3.5 38.3 51 -5.7 21.8
00:40 1016 30 845 24.95 3.7 38.7 51 -5.4 22.2
00:45 1016 30 845 24.95 3.6 38.5 52 -5.4 22.2
00:50 1016 30 845 24.95 3.9 38.9 49 -6 21.2
00:55 1016 30 845 24.95 4.1 39.4 48 -5.9 21.3
01:00 1016 30 845 24.95 4 39.2 49 -5.7 21.8
01:05 1016 30 845 24.95 3.8 38.9 50 -5.6 22
01:10 1016 30 845 24.95 3.8 38.9 49 -5.9 21.4
01:15 1016 30 845 24.95 3.4 38.2 54 -5.1 22.9
01:20 1016 30 845 24.95 2.9 37.2 52 -6 21.2
01:25 1016 30 845 24.95 3.3 38 53 -5.4 22.3
01:30 1016 30 845 24.95 2.7 36.9 54 -5.7 21.8
01:35 1016 30 845 24.95 2.9 37.2 53 -5.7 21.8
01:40 1016 30 845 24.95 2.8 37.1 50 -6.6 20.1
01:45 1016 30 845 24.95 3.4 38.1 52 -5.6 21.9
01:50 1016 30 845 24.95 2.7 36.9 56 -5.2 22.6
01:55 1016 30 845 24.95 2.7 36.9 47 -7.3 18.8
02:00 1016 30 845 24.95 4.3 39.7 47 -5.9 21.3
02:05 1016 30 845 24.95 3.5 38.3 50 -6 21.1
02:10 1016 30 845 24.95 2.8 37.1 51 -6.2 20.8
02:15 1016 30 845 24.95 3.4 38 49 -6.4 20.5
02:20 1016 30 845 24.95 3.3 37.9 51 -5.9 21.4
02:25 1016 30 845 24.95 3.5 38.3 48 -6.4 20.4
02:30 1016 30 845 24.95 3.7 38.6 51 -5.5 22
02:35 1016 30 845 24.95 3.4 38.1 51 -5.8 21.5
02:40 1016 30 845 24.95 3.3 38 54 -5.2 22.7
02:45 1016 30 845 24.95 3.3 37.9 49 -6.4 20.4
02:50 1016 30 845 24.95 3.3 38 52 -5.6 22
02:55 1016 30 845 24.95 3.3 37.9 51 -5.8 21.6
03:00 1016 30 845 24.95 3.3 38 55 -4.9 23.2
03:05 1016 30 845 24.95 3.5 38.2 50 -6.1 21
03:10 1016 30 845 24.95 3.6 38.5 53 -5.1 22.8
03:15 1015 29.97 845 24.95 3.6 38.4 49 -6 21.1
03:20 1015 29.97 844 24.92 3.7 38.7 53 -4.9 23.2
03:25 1015 29.97 844 24.92 3.5 38.4 56 -4.4 24.1
03:30 1015 29.97 844 24.92 3.5 38.3 50 -6 21.2
03:35 1015 29.97 844 24.92 4.1 39.4 48 -5.9 21.3
03:40 1015 29.97 844 24.92 4 39.1 48 -6.2 20.9
03:45 1015 29.97 844 24.92 3.9 39.1 50 -5.5 22
03:50 1015 29.97 844 24.92 3.7 38.6 51 -5.5 22.1
03:55 1015 29.97 844 24.92 3.7 38.7 49 -6.1 21
04:00 1015 29.97 844 24.92 4 39.2 49 -5.8 21.6
04:05 1015 29.97 844 24.92 3.6 38.5 54 -4.9 23.2
04:10 1015 29.97 844 24.92 3.2 37.7 52 -5.8 21.6
04:15 1015 29.97 844 24.92 3.4 38.1 55 -4.9 23.2
04:20 1015 29.97 844 24.92 3.1 37.6 58 -4.4 24.1
04:25 1015 29.97 844 24.92 2.9 37.3 52 -5.9 21.4
04:30 1015 29.97 844 24.92 3.1 37.5 57 -4.7 23.5
04:35 1015 29.97 844 24.92 2.9 37.2 50 -6.4 20.4
04:40 1015 29.97 844 24.92 3.5 38.3 50 -6.1 21
04:45 1015 29.97 844 24.92 3.8 38.8 48 -6.3 20.7
04:50 1015 29.97 844 24.92 3.8 38.9 47 -6.5 20.4
04:55 1015 29.97 844 24.92 4.1 39.4 46 -6.4 20.4
05:00 1015 29.97 844 24.92 4.2 39.5 54 -4.3 24.3
05:05 1015 29.97 844 24.92 2.9 37.2 55 -5.4 22.3
05:10 1015 29.97 844 24.92 3.4 38.2 49 -6.4 20.5
05:15 1015 29.97 844 24.92 3.9 38.9 53 -5 23.1
05:20 1015 29.97 844 24.92 3.5 38.3 52 -5.5 22
05:25 1015 29.97 844 24.92 3.8 38.9 49 -6 21.2
05:30 1015 29.97 844 24.92 4.2 39.6 45 -6.7 20
05:35 1015 29.97 844 24.92 4.4 40 45 -6.5 20.3
05:40 1015 29.97 844 24.92 4.4 39.9 44 -6.8 19.8
05:45 1015 29.97 844 24.92 4.4 39.8 45 -6.7 20
05:50 1015 29.97 844 24.92 4.6 40.3 44 -6.6 20.2
05:55 1015 29.97 844 24.92 4.5 40.2 42 -7.2 19
06:00 1015 29.97 844 24.92 4.8 40.7 42 -7.1 19.2
06:05 1015 29.97 844 24.92 4.8 40.6 46 -5.8 21.5
06:10 1015 29.97 844 24.92 3.9 39 53 -4.9 23.2
06:15 1015 29.97 844 24.92 3.4 38.1 56 -4.5 23.8
06:20 1015 29.97 844 24.92 3.4 38.2 55 -4.8 23.3
06:25 1015 29.97 844 24.92 3.8 38.9 48 -6.2 20.8
06:30 1015 29.97 844 24.92 4.2 39.6 48 -5.8 21.6
06:35 1014 29.94 844 24.92 4 39.2 48 -6 21.2
06:40 1014 29.94 844 24.92 4.5 40 45 -6.5 20.2
06:45 1014 29.94 844 24.92 4.5 40.1 46 -6.1 21.1
06:50 1014 29.94 843 24.89 4.2 39.5 53 -4.6 23.7
06:55 1014 29.94 844 24.92 3.8 38.9 46 -6.9 19.7
07:00 1014 29.94 844 24.92 4 39.2 48 -6 21.1
07:05 1014 29.94 843 24.89 4.1 39.4 47 -6.2 20.8
07:10 1014 29.94 843 24.89 4.1 39.5 53 -4.6 23.7
07:15 1014 29.94 844 24.92 3.6 38.5 52 -5.3 22.5
07:20 1014 29.94 844 24.92 3.8 38.8 46 -6.9 19.6
07:25 1014 29.94 843 24.89 4.3 39.7 48 -5.8 21.5
07:30 1014 29.94 843 24.89 4.1 39.4 49 -5.8 21.6
07:35 1014 29.94 843 24.89 3.9 39.1 48 -6 21.1
07:40 1014 29.94 843 24.89 3.9 38.9 47 -6.3 20.6
07:45 1014 29.94 843 24.89 4 39.1 47 -6.2 20.8
07:50 1014 29.94 843 24.89 4.2 39.6 44 -6.9 19.5
07:55 1014 29.94 843 24.89 4.4 40 43 -7.2 19
08:00 1014 29.94 844 24.92 4.3 39.8 45 -6.7 20
08:05 1014 29.94 844 24.92 4.1 39.4 44 -7.1 19.3
08:10 1014 29.94 844 24.92 4.3 39.7 43 -7.3 18.9
08:15 1014 29.94 843 24.89 4.8 40.6 40 -7.9 17.9
08:20 1014 29.94 844 24.92 4.6 40.2 46 -6 21.1
08:25 1014 29.94 843 24.89 4 39.3 44 -7.2 19
08:30 1014 29.94 843 24.89 4.5 40 42 -7.5 18.6
08:35 1014 29.94 843 24.89 4.7 40.4 41 -7.5 18.5
08:40 1014 29.94 843 24.89 5.2 41.3 41 -6.9 19.7
08:45 1014 29.94 843 24.89 4.7 40.5 44 -6.6 20
08:50 1014 29.94 843 24.89 4.7 40.4 43 -6.7 19.9
08:55 1014 29.94 843 24.89 4.6 40.2 48 -5.6 22
09:00 1014 29.94 843 24.89 4.3 39.7 44 -6.8 19.8
09:05 1014 29.94 843 24.89 4.4 40 43 -7 19.4
09:10 1014 29.94 843 24.89 4.3 39.8 42 -7.4 18.7
09:15 1014 29.94 843 24.89 4.2 39.6 43 -7.3 18.8
09:20 1014 29.94 843 24.89 4 39.2 48 -6 21.1
09:25 1014 29.94 843 24.89 4.2 39.5 46 -6.5 20.3
09:30 1014 29.94 843 24.89 4.1 39.4 46 -6.5 20.4
09:35 1014 29.94 843 24.89 4.4 40 48 -5.6 21.9
09:40 1014 29.94 843 24.89 4.4 40 50 -5 23
09:45 1014 29.94 843 24.89 4.5 40.1 49 -5.2 22.7
09:50 1014 29.94 843 24.89 4.7 40.5 48 -5.4 22.2
09:55 1014 29.94 843 24.89 4.8 40.7 44 -6.5 20.4
10:00 1014 29.94 843 24.89 4.8 40.6 41 -7.5 18.5
10:05 1014 29.94 843 24.89 4.9 40.8 42 -7 19.4
10:10 1013 29.91 843 24.89 5.1 41.2 42 -6.6 20
10:15 1013 29.91 843 24.89 5.1 41.2 44 -6.3 20.7
10:20 1013 29.91 842 24.86 5 41 43 -6.7 20
10:25 1013 29.91 842 24.86 5.4 41.7 38 -7.8 18
10:30 1013 29.91 842 24.86 5.6 42.1 39 -7.3 18.8
10:35 1013 29.91 842 24.86 5.8 42.4 38 -7.4 18.6
10:40 1013 29.91 842 24.86 6 42.7 39 -6.9 19.5
10:45 1013 29.91 842 24.86 6.1 43 44 -5.4 22.3
10:50 1013 29.91 842 24.86 6.1 43.1 43 -5.4 22.3
10:55 1013 29.91 842 24.86 6.1 43 45 -5.1 22.9
11:00 1013 29.91 842 24.86 6 42.8 43 -5.7 21.7
11:05 1013 29.91 842 24.86 5.8 42.5 41 -6.3 20.7
11:10 1012 29.88 842 24.86 5.7 42.3 37 -7.9 17.8
11:15 1012 29.88 841 24.83 5.6 42.1 40 -7.1 19.2
11:20 1012 29.88 841 24.83 5.9 42.6 38 -7.2 19
11:25 1012 29.88 841 24.83 6.8 44.3 32 -8.9 15.9
11:30 1012 29.88 841 24.83 7.6 45.6 28 -9.8 14.3
11:35 1012 29.88 841 24.83 7.9 46.2 29 -8.9 15.9
11:40 1012 29.88 841 24.83 8 46.3 28 -9.6 14.8
11:45 1012 29.88 841 24.83 8 46.4 29 -9.2 15.5
11:50 1011 29.85 841 24.83 8.1 46.5 27 -9.6 14.7
11:55 1011 29.85 841 24.83 8.2 46.8 27 -9.8 14.4
12:00 1011 29.85 841 24.83 8.2 46.8 28 -9.3 15.3
12:05 1011 29.85 841 24.83 8.1 46.5 28 -9.3 15.3
12:10 1011 29.85 840 24.81 8.2 46.7 27 -9.9 14.2
12:15 1011 29.85 840 24.81 8.4 47.1 26 -9.8 14.3
12:20 1011 29.85 840 24.81 8.4 47.1 26 -10.2 13.6
12:25 1011 29.85 840 24.81 8.6 47.4 26 -9.8 14.4
12:30 1011 29.85 840 24.81 8.5 47.2 27 -9.3 15.2
12:35 1010 29.83 840 24.81 8.3 47 27 -9.6 14.8
12:40 1010 29.83 840 24.81 8.5 47.3 26 -9.8 14.4
12:45 1010 29.83 840 24.81 8.7 47.6 26 -9.8 14.3
12:50 1010 29.83 839 24.78 8.6 47.5 27 -9.3 15.2
12:55 1010 29.83 839 24.78 8.6 47.5 28 -9 15.8
13:00 1010 29.83 839 24.78 8.5 47.3 29 -8.5 16.6
13:05 1010 29.83 839 24.78 8.4 47.2 29 -8.7 16.4
13:10 1010 29.83 839 24.78 8.6 47.4 30 -8 17.6
13:15 1010 29.83 839 24.78 8.5 47.4 30 -7.9 17.8
13:20 1010 29.83 839 24.78 8.5 47.4 30 -8.1 17.5
13:25 1010 29.83 839 24.78 8.6 47.4 31 -7.7 18.2
13:30 1010 29.83 839 24.78 8.6 47.5 32 -7.4 18.8
13:35 1010 29.83 839 24.78 8.6 47.4 31 -7.7 18.1
13:40 1010 29.83 839 24.78 8.6 47.5 32 -7.4 18.7
13:45 1010 29.83 839 24.78 8.6 47.4 32 -7.2 19
13:50 1009 29.8 839 24.78 8.7 47.6 31 -7.5 18.5
13:55 1009 29.8 839 24.78 8.9 48.1 31 -7.4 18.6
14:00 1009 29.8 839 24.78 9 48.1 31 -7.1 19.3
14:05 1009 29.8 839 24.78 8.9 48 32 -7 19.4
14:10 1009 29.8 839 24.78 8.8 47.9 31 -7.4 18.6
14:15 1009 29.8 839 24.78 9 48.1 31 -7.1 19.2
14:20 1009 29.8 839 24.78 8.8 47.9 32 -7 19.4
14:25 1009 29.8 838 24.75 8.8 47.8 32 -6.9 19.5
14:30 1009 29.8 838 24.75 8.8 47.9 31 -7.3 18.8
14:35 1009 29.8 838 24.75 9 48.2 29 -8 17.6
14:40 1009 29.8 838 24.75 9.1 48.3 31 -7.3 18.9
14:45 1009 29.8 838 24.75 8.8 47.9 31 -7.2 19
14:50 1009 29.8 838 24.75 8.7 47.7 31 -7.6 18.3
14:55 1009 29.8 838 24.75 8.8 47.8 31 -7.6 18.3
15:00 1009 29.8 838 24.75 8.9 48 30 -7.6 18.3
15:05 1009 29.8 838 24.75 8.9 48 31 -7.3 18.8
15:10 1009 29.8 838 24.75 8.8 47.8 31 -7.2 19
15:15 1009 29.8 838 24.75 8.7 47.7 32 -7.2 19.1
15:20 1009 29.8 838 24.75 8.7 47.6 31 -7.3 18.8
15:25 1009 29.8 838 24.75 8.7 47.6 31 -7.5 18.5
15:30 1009 29.8 838 24.75 8.7 47.7 32 -7.2 19
15:35 1009 29.8 838 24.75 8.6 47.4 32 -7.4 18.7
15:40 1009 29.8 838 24.75 8.5 47.3 31 -7.6 18.3
15:45 1009 29.8 838 24.75 8.5 47.3 33 -7 19.4
15:50 1009 29.8 838 24.75 8.3 47 32 -7.5 18.4
15:55 1009 29.8 838 24.75 8.3 46.9 34 -6.8 19.7
16:00 1009 29.8 838 24.75 8.1 46.6 33 -7.2 19
16:05 1009 29.8 838 24.75 8.2 46.7 32 -7.4 18.6
16:10 1009 29.8 838 24.75 8.2 46.8 33 -7.2 19
16:15 1009 29.8 838 24.75 8.1 46.6 33 -7.1 19.3
16:20 1009 29.8 838 24.75 8 46.5 33 -7.3 18.9
16:25 1009 29.8 838 24.75 8.1 46.6 32 -7.7 18.1
16:30 1009 29.8 838 24.75 8.2 46.8 32 -7.4 18.7
16:35 1009 29.8 838 24.75 8.1 46.7 32 -7.7 18.2
16:40 1009 29.8 838 24.75 8.1 46.6 32 -7.5 18.5
16:45 1009 29.8 838 24.75 8 46.5 33 -7.4 18.8
16:50 1009 29.8 838 24.75 7.8 46.1 34 -7.2 19
16:55 1009 29.8 838 24.75 7.6 45.8 34 -7.1 19.2
17:00 1009 29.8 838 24.75 7.5 45.4 35 -7 19.5
17:05 1009 29.8 838 24.75 7.3 45.2 35 -7 19.4
17:10 1009 29.8 838 24.75 7.3 45.1 34 -7.6 18.4
17:15 1009 29.8 838 24.75 7.5 45.4 34 -7.4 18.7
17:20 1009 29.8 838 24.75 7.5 45.4 34 -7.3 18.8
17:25 1009 29.8 838 24.75 7.5 45.5 34 -7.5 18.6
17:30 1009 29.8 838 24.75 7.5 45.4 34 -7.4 18.6
17:35 1009 29.8 838 24.75 7.5 45.6 36 -6.6 20
17:40 1009 29.8 838 24.75 7.3 45.2 34 -7.4 18.7
17:45 1009 29.8 838 24.75 7.4 45.4 35 -6.9 19.5
17:50 1009 29.8 838 24.75 7.3 45.1 38 -6.1 21
17:55 1009 29.8 838 24.75 7 44.5 39 -5.9 21.3
18:00 1009 29.8 838 24.75 6.9 44.4 41 -5.5 22.1
18:05 1009 29.8 838 24.75 6.8 44.3 39 -6.1 21
18:10 1009 29.8 838 24.75 6.9 44.4 39 -6.1 21
18:15 1009 29.8 838 24.75 6.8 44.3 40 -5.9 21.4
18:20 1009 29.8 838 24.75 6.6 44 42 -5.4 22.3
18:25 1009 29.8 838 24.75 6.5 43.7 42 -5.6 22
18:30 1009 29.8 838 24.75 6.5 43.6 43 -5.1 22.7
18:35 1009 29.8 838 24.75 6.3 43.3 46 -4.6 23.7
18:40 1009 29.8 838 24.75 6 42.9 46 -4.8 23.4
18:45 1009 29.8 838 24.75 6 42.8 47 -4.5 23.8
18:50 1009 29.8 838 24.75 5.9 42.6 47 -4.5 23.9
18:55 1009 29.8 838 24.75 5.8 42.5 47 -4.5 23.8
19:00 1009 29.8 838 24.75 5.8 42.4 50 -3.8 25.2
19:05 1009 29.8 838 24.75 5.5 42 52 -3.6 25.5
19:10 1009 29.8 838 24.75 5.4 41.8 52 -3.7 25.3
19:15 1009 29.8 838 24.75 5.4 41.7 54 -3.2 26.3
19:20 1009 29.8 838 24.75 5.2 41.3 55 -3 26.5
19:25 1009 29.8 838 24.75 5.1 41.1 57 -2.9 26.9
19:30 1009 29.8 838 24.75 5 41.1 57 -2.8 27
19:35 1009 29.8 838 24.75 4.9 40.8 58 -2.7 27.1
19:40 1009 29.8 839 24.78 4.9 40.7 59 -2.4 27.7
19:45 1009 29.8 839 24.78 4.6 40.3 59 -2.6 27.3
19:50 1009 29.8 839 24.78 4.6 40.2 62 -2.1 28.2
19:55 1009 29.8 838 24.75 4.4 39.9 60 -2.7 27.1
20:00 1009 29.8 838 24.75 4.6 40.2 59 -2.7 27.1
20:05 1009 29.8 838 24.75 4.7 40.4 58 -2.9 26.8
20:10 1009 29.8 838 24.75 4.9 40.8 55 -3.5 25.7
20:15 1009 29.8 838 24.75 5 41 54 -3.5 25.7
20:20 1009 29.8 838 24.75 5 41.1 52 -4 24.9
20:25 1009 29.8 838 24.75 5.1 41.1 55 -3.2 26.2
20:30 1009 29.8 838 24.75 4.9 40.7 54 -3.6 25.5
20:35 1009 29.8 838 24.75 4.8 40.7 58 -2.7 27.2
20:40 1009 29.8 838 24.75 4.5 40.1 59 -2.8 26.9
20:45 1009 29.8 838 24.75 4.5 40.2 57 -3.2 26.2
20:50 1009 29.8 838 24.75 4.8 40.6 54 -3.7 25.3
20:55 1009 29.8 838 24.75 4.9 40.8 55 -3.3 26
21:00 1009 29.8 838 24.75 4.9 40.7 57 -3 26.6
21:05 1009 29.8 838 24.75 4.9 40.7 56 -3.1 26.4
21:10 1009 29.8 838 24.75 4.7 40.5 58 -3 26.7
21:15 1009 29.8 838 24.75 4.6 40.3 59 -2.7 27.1
21:20 1008 29.77 838 24.75 4.5 40.2 59 -2.7 27.2
21:25 1009 29.8 838 24.75 4.5 40.1 60 -2.7 27.2
21:30 1008 29.77 838 24.75 4.6 40.2 59 -2.6 27.2
21:35 1008 29.77 838 24.75 4.5 40 62 -2.3 27.9
21:40 1008 29.77 838 24.75 4.2 39.6 62 -2.5 27.6
21:45 1008 29.77 838 24.75 4.2 39.6 60 -2.8 27
21:50 1008 29.77 838 24.75 4.4 39.9 59 -2.9 26.8
21:55 1009 29.8 838 24.75 4.5 40 59 -2.8 26.9
22:00 1009 29.8 838 24.75 4.4 39.9 62 -2.2 28.1
22:05 1009 29.8 838 24.75 3.8 38.8 69 -1.3 29.7
22:10 1009 29.8 838 24.75 3.2 37.7 71 -1.5 29.2
22:15 1009 29.8 838 24.75 3.2 37.8 70 -1.8 28.8
22:20 1009 29.8 838 24.75 3.2 37.7 72 -1.4 29.5
22:25 1009 29.8 838 24.75 3 37.3 73 -1.3 29.6
22:30 1009 29.8 838 24.75 2.7 36.8 79 -0.6 30.9
22:35 1009 29.8 838 24.75 2 35.7 87 0.2 32.3
22:40 1009 29.8 838 24.75 1.3 34.4 90 -0.1 31.8
22:45 1009 29.8 838 24.75 1.1 34 92 -0.1 31.8
22:50 1009 29.8 838 24.75 1 33.9 92 -0.1 31.9
22:55 1009 29.8 838 24.75 1 33.9 92 -0.1 31.8
23:00 1009 29.8 838 24.75 1 33.8 92 -0.1 31.9
23:05 1009 29.8 838 24.75 0.9 33.6 93 -0.1 31.9
23:10 1009 29.8 838 24.75 0.8 33.5 94 -0.1 31.9
23:15 1009 29.8 838 24.75 0.8 33.4 94 -0.1 31.8
23:20 1009 29.8 838 24.75 0.5 32.9 95 -0.2 31.7
23:25 1009 29.8 838 24.75 0.2 32.3 96 -0.4 31.4
23:30 1009 29.8 838 24.75 0 32.1 97 -0.4 31.3
23:35 1009 29.8 838 24.75 -0 32 97 -0.4 31.3
23:40 1009 29.8 838 24.75 -0 32 97 -0.4 31.3
23:45 1009 29.8 838 24.75 -0 31.9 98 -0.4 31.3
23:50 1009 29.8 838 24.75 -0 31.9 97 -0.4 31.3
23:55 1009 29.8 838 24.75 -0.1 31.9 98 -0.4 31.3
24:00 1009 29.8 838 24.75 -0 32 98 -0.3 31.4